sensor_id;sensor_type;location;lat;lon;timestamp;pressure;altitude;pressure_sealevel;temperature;humidity
55301;BME280;58302;51.446;-2.000;2023-01-06T00:01:10;100420.09;;;8.96;100.00
55301;BME280;58302;51.446;-2.000;2023-01-06T00:03:37;100438.81;;;8.76;100.00
55301;BME280;58302;51.446;-2.000;2023-01-06T00:06:05;100454.88;;;8.60;100.00
55301;BME280;58302;51.446;-2.000;2023-01-06T00:08:33;100450.94;;;8.46;100.00
55301;BME280;58302;51.446;-2.000;2023-01-06T00:11:07;100451.19;;;8.28;100.00
55301;BME280;58302;51.446;-2.000;2023-01-06T00:13:33;100455.81;;;8.10;100.00
55301;BME280;58302;51.446;-2.000;2023-01-06T00:16:11;100470.09;;;8.06;100.00
55301;BME280;58302;51.446;-2.000;2023-01-06T00:18:38;100472.91;;;7.94;100.00
55301;BME280;58302;51.446;-2.000;2023-01-06T00:21:04;100491.19;;;7.87;100.00
55301;BME280;58302;51.446;-2.000;2023-01-06T00:23:31;100475.34;;;7.79;100.00
55301;BME280;58302;51.446;-2.000;2023-01-06T00:25:58;100460.13;;;7.73;100.00
55301;BME280;58302;51.446;-2.000;2023-01-06T00:28:24;100470.94;;;7.73;100.00
55301;BME280;58302;51.446;-2.000;2023-01-06T00:30:50;100498.63;;;7.63;100.00
55301;BME280;58302;51.446;-2.000;2023-01-06T00:33:16;100503.91;;;7.70;100.00
55301;BME280;58302;51.446;-2.000;2023-01-06T00:35:42;100506.59;;;7.70;100.00
55301;BME280;58302;51.446;-2.000;2023-01-06T00:38:08;100512.00;;;7.70;100.00
55301;BME280;58302;51.446;-2.000;2023-01-06T00:40:35;100527.16;;;7.71;100.00
55301;BME280;58302;51.446;-2.000;2023-01-06T00:43:02;100523.88;;;7.69;100.00
55301;BME280;58302;51.446;-2.000;2023-01-06T00:45:28;100538.97;;;7.64;100.00
55301;BME280;58302;51.446;-2.000;2023-01-06T00:47:54;100529.78;;;7.65;100.00
55301;BME280;58302;51.446;-2.000;2023-01-06T00:50:20;100532.97;;;7.62;100.00
55301;BME280;58302;51.446;-2.000;2023-01-06T00:52:47;100538.28;;;7.57;100.00
55301;BME280;58302;51.446;-2.000;2023-01-06T00:55:13;100530.00;;;7.47;100.00
55301;BME280;58302;51.446;-2.000;2023-01-06T00:57:39;100543.59;;;7.52;100.00
55301;BME280;58302;51.446;-2.000;2023-01-06T01:00:07;100544.56;;;7.46;100.00
55301;BME280;58302;51.446;-2.000;2023-01-06T01:02:34;100543.44;;;7.42;100.00
55301;BME280;58302;51.446;-2.000;2023-01-06T01:05:00;100546.13;;;7.42;100.00
55301;BME280;58302;51.446;-2.000;2023-01-06T01:07:26;100542.16;;;7.33;100.00
55301;BME280;58302;51.446;-2.000;2023-01-06T01:09:52;100552.41;;;7.31;100.00
55301;BME280;58302;51.446;-2.000;2023-01-06T01:12:18;100549.50;;;7.21;100.00
55301;BME280;58302;51.446;-2.000;2023-01-06T01:14:47;100543.09;;;7.10;100.00
55301;BME280;58302;51.446;-2.000;2023-01-06T01:17:17;100542.53;;;6.96;100.00
55301;BME280;58302;51.446;-2.000;2023-01-06T01:19:44;100557.47;;;6.87;100.00
55301;BME280;58302;51.446;-2.000;2023-01-06T01:22:11;100560.31;;;6.69;100.00
55301;BME280;58302;51.446;-2.000;2023-01-06T01:24:37;100550.00;;;6.54;100.00
55301;BME280;58302;51.446;-2.000;2023-01-06T01:27:03;100551.06;;;6.41;100.00
55301;BME280;58302;51.446;-2.000;2023-01-06T01:29:29;100566.44;;;6.29;100.00
55301;BME280;58302;51.446;-2.000;2023-01-06T01:31:55;100562.56;;;6.25;100.00
55301;BME280;58302;51.446;-2.000;2023-01-06T01:34:21;100565.94;;;6.20;100.00
55301;BME280;58302;51.446;-2.000;2023-01-06T01:36:49;100563.97;;;6.16;100.00
55301;BME280;58302;51.446;-2.000;2023-01-06T01:39:17;100564.44;;;6.13;100.00
55301;BME280;58302;51.446;-2.000;2023-01-06T01:41:44;100573.91;;;6.03;100.00
55301;BME280;58302;51.446;-2.000;2023-01-06T01:47:16;100583.69;;;6.16;100.00
55301;BME280;58302;51.446;-2.000;2023-01-06T01:49:45;100589.34;;;6.26;100.00
55301;BME280;58302;51.446;-2.000;2023-01-06T01:52:13;100593.53;;;6.34;100.00
55301;BME280;58302;51.446;-2.000;2023-01-06T01:54:40;100596.94;;;6.41;100.00
55301;BME280;58302;51.446;-2.000;2023-01-06T01:57:15;100595.66;;;6.44;100.00
55301;BME280;58302;51.446;-2.000;2023-01-06T01:59:42;100590.59;;;6.47;100.00
55301;BME280;58302;51.446;-2.000;2023-01-06T02:02:12;100593.44;;;6.41;100.00
55301;BME280;58302;51.446;-2.000;2023-01-06T02:04:41;100591.41;;;6.24;100.00
55301;BME280;58302;51.446;-2.000;2023-01-06T02:07:10;100586.47;;;6.10;100.00
55301;BME280;58302;51.446;-2.000;2023-01-06T02:09:49;100582.19;;;5.90;100.00
55301;BME280;58302;51.446;-2.000;2023-01-06T02:12:16;100588.25;;;5.74;100.00
55301;BME280;58302;51.446;-2.000;2023-01-06T02:14:41;100580.03;;;5.69;100.00
55301;BME280;58302;51.446;-2.000;2023-01-06T02:17:30;100592.91;;;5.67;100.00
55301;BME280;58302;51.446;-2.000;2023-01-06T02:55:46;100636.25;;;4.98;100.00
55301;BME280;58302;51.446;-2.000;2023-01-06T02:58:46;100633.88;;;4.90;100.00
55301;BME280;58302;51.446;-2.000;2023-01-06T03:01:19;100638.44;;;4.90;100.00
55301;BME280;58302;51.446;-2.000;2023-01-06T03:03:50;100637.81;;;4.88;100.00
55301;BME280;58302;51.446;-2.000;2023-01-06T03:06:20;100637.38;;;4.91;100.00
55301;BME280;58302;51.446;-2.000;2023-01-06T03:08:50;100639.84;;;4.92;100.00
55301;BME280;58302;51.446;-2.000;2023-01-06T03:11:18;100633.72;;;4.85;100.00
55301;BME280;58302;51.446;-2.000;2023-01-06T03:14:32;100644.25;;;4.87;100.00
55301;BME280;58302;51.446;-2.000;2023-01-06T03:17:00;100648.75;;;4.93;100.00
55301;BME280;58302;51.446;-2.000;2023-01-06T03:19:26;100651.00;;;4.96;100.00
55301;BME280;58302;51.446;-2.000;2023-01-06T03:21:53;100657.22;;;4.96;100.00
55301;BME280;58302;51.446;-2.000;2023-01-06T03:24:20;100652.41;;;4.98;100.00
55301;BME280;58302;51.446;-2.000;2023-01-06T03:26:47;100653.03;;;5.00;100.00
55301;BME280;58302;51.446;-2.000;2023-01-06T03:29:18;100648.38;;;5.08;100.00
55301;BME280;58302;51.446;-2.000;2023-01-06T03:42:46;100642.31;;;5.31;100.00
55301;BME280;58302;51.446;-2.000;2023-01-06T03:45:57;100641.34;;;5.25;100.00
55301;BME280;58302;51.446;-2.000;2023-01-06T03:48:32;100635.66;;;5.15;100.00
55301;BME280;58302;51.446;-2.000;2023-01-06T03:51:52;100636.16;;;5.05;100.00
55301;BME280;58302;51.446;-2.000;2023-01-06T03:54:09;100636.56;;;5.09;100.00
55301;BME280;58302;51.446;-2.000;2023-01-06T03:56:48;100642.03;;;5.02;100.00
55301;BME280;58302;51.446;-2.000;2023-01-06T03:59:20;100637.31;;;4.97;100.00
55301;BME280;58302;51.446;-2.000;2023-01-06T04:01:48;100638.13;;;4.98;100.00
55301;BME280;58302;51.446;-2.000;2023-01-06T04:04:16;100637.75;;;4.94;100.00
55301;BME280;58302;51.446;-2.000;2023-01-06T04:06:42;100644.41;;;4.92;100.00
55301;BME280;58302;51.446;-2.000;2023-01-06T04:09:08;100642.53;;;4.92;100.00
55301;BME280;58302;51.446;-2.000;2023-01-06T04:11:34;100641.94;;;4.90;100.00
55301;BME280;58302;51.446;-2.000;2023-01-06T04:14:18;100657.63;;;4.93;100.00
55301;BME280;58302;51.446;-2.000;2023-01-06T04:16:44;100653.03;;;5.00;100.00
55301;BME280;58302;51.446;-2.000;2023-01-06T04:19:10;100654.22;;;5.05;100.00
55301;BME280;58302;51.446;-2.000;2023-01-06T04:21:36;100656.22;;;5.09;100.00
55301;BME280;58302;51.446;-2.000;2023-01-06T04:24:03;100660.38;;;5.12;100.00
55301;BME280;58302;51.446;-2.000;2023-01-06T04:26:29;100662.59;;;5.15;100.00
55301;BME280;58302;51.446;-2.000;2023-01-06T04:28:55;100661.53;;;5.16;100.00
55301;BME280;58302;51.446;-2.000;2023-01-06T04:31:21;100667.41;;;5.13;100.00
55301;BME280;58302;51.446;-2.000;2023-01-06T04:33:47;100671.97;;;5.12;100.00
55301;BME280;58302;51.446;-2.000;2023-01-06T04:36:13;100672.78;;;5.13;100.00
55301;BME280;58302;51.446;-2.000;2023-01-06T04:38:40;100678.31;;;5.18;100.00
55301;BME280;58302;51.446;-2.000;2023-01-06T04:41:06;100671.81;;;5.25;100.00
55301;BME280;58302;51.446;-2.000;2023-01-06T04:43:32;100668.06;;;5.26;100.00
55301;BME280;58302;51.446;-2.000;2023-01-06T04:45:58;100669.72;;;5.27;100.00
55301;BME280;58302;51.446;-2.000;2023-01-06T04:48:24;100677.84;;;5.21;100.00
55301;BME280;58302;51.446;-2.000;2023-01-06T04:51:03;100672.31;;;5.16;100.00
55301;BME280;58302;51.446;-2.000;2023-01-06T04:53:32;100676.38;;;5.07;100.00
55301;BME280;58302;51.446;-2.000;2023-01-06T04:56:04;100673.28;;;5.03;100.00
55301;BME280;58302;51.446;-2.000;2023-01-06T04:58:32;100672.38;;;4.91;100.00
55301;BME280;58302;51.446;-2.000;2023-01-06T05:01:02;100671.41;;;4.85;100.00
55301;BME280;58302;51.446;-2.000;2023-01-06T05:03:28;100669.38;;;4.81;100.00
55301;BME280;58302;51.446;-2.000;2023-01-06T05:05:54;100673.47;;;4.83;100.00
55301;BME280;58302;51.446;-2.000;2023-01-06T05:08:20;100668.09;;;4.83;100.00
55301;BME280;58302;51.446;-2.000;2023-01-06T05:10:46;100662.34;;;4.80;100.00
55301;BME280;58302;51.446;-2.000;2023-01-06T05:13:12;100663.00;;;4.75;100.00
55301;BME280;58302;51.446;-2.000;2023-01-06T05:15:38;100656.88;;;4.68;100.00
55301;BME280;58302;51.446;-2.000;2023-01-06T05:18:04;100652.16;;;4.63;100.00
55301;BME280;58302;51.446;-2.000;2023-01-06T05:20:30;100653.63;;;4.59;100.00
55301;BME280;58302;51.446;-2.000;2023-01-06T05:22:56;100651.16;;;4.58;100.00
55301;BME280;58302;51.446;-2.000;2023-01-06T05:25:22;100654.28;;;4.55;100.00
55301;BME280;58302;51.446;-2.000;2023-01-06T05:27:48;100657.44;;;4.52;100.00
55301;BME280;58302;51.446;-2.000;2023-01-06T05:30:14;100664.28;;;4.47;100.00
55301;BME280;58302;51.446;-2.000;2023-01-06T05:32:39;100670.66;;;4.53;100.00
55301;BME280;58302;51.446;-2.000;2023-01-06T05:35:06;100667.97;;;4.53;100.00
55301;BME280;58302;51.446;-2.000;2023-01-06T05:37:32;100660.56;;;4.48;100.00
55301;BME280;58302;51.446;-2.000;2023-01-06T05:39:58;100663.41;;;4.54;100.00
55301;BME280;58302;51.446;-2.000;2023-01-06T05:42:23;100668.72;;;4.60;100.00
55301;BME280;58302;51.446;-2.000;2023-01-06T05:44:49;100662.44;;;4.66;100.00
55301;BME280;58302;51.446;-2.000;2023-01-06T05:47:15;100669.44;;;4.74;100.00
55301;BME280;58302;51.446;-2.000;2023-01-06T05:49:41;100671.31;;;4.73;100.00
55301;BME280;58302;51.446;-2.000;2023-01-06T05:52:07;100667.28;;;4.83;100.00
55301;BME280;58302;51.446;-2.000;2023-01-06T05:54:33;100670.59;;;4.85;100.00
55301;BME280;58302;51.446;-2.000;2023-01-06T05:56:59;100673.28;;;4.85;100.00
55301;BME280;58302;51.446;-2.000;2023-01-06T05:59:25;100660.63;;;4.85;100.00
55301;BME280;58302;51.446;-2.000;2023-01-06T06:01:51;100663.75;;;4.82;100.00
55301;BME280;58302;51.446;-2.000;2023-01-06T06:04:17;100666.91;;;4.79;100.00
55301;BME280;58302;51.446;-2.000;2023-01-06T06:06:43;100675.59;;;4.81;100.00
55301;BME280;58302;51.446;-2.000;2023-01-06T06:09:09;100680.97;;;4.81;100.00
55301;BME280;58302;51.446;-2.000;2023-01-06T06:11:35;100679.84;;;4.89;100.00
55301;BME280;58302;51.446;-2.000;2023-01-06T06:14:01;100684.13;;;4.96;100.00
55301;BME280;58302;51.446;-2.000;2023-01-06T06:16:27;100686.22;;;4.94;100.00
55301;BME280;58302;51.446;-2.000;2023-01-06T06:18:55;100689.97;;;4.93;100.00
55301;BME280;58302;51.446;-2.000;2023-01-06T06:21:24;100695.81;;;4.90;100.00
55301;BME280;58302;51.446;-2.000;2023-01-06T06:23:54;100692.72;;;4.87;100.00
55301;BME280;58302;51.446;-2.000;2023-01-06T06:26:21;100698.75;;;4.82;100.00
55301;BME280;58302;51.446;-2.000;2023-01-06T06:28:47;100696.53;;;4.79;100.00
55301;BME280;58302;51.446;-2.000;2023-01-06T06:31:25;100706.91;;;4.75;100.00
55301;BME280;58302;51.446;-2.000;2023-01-06T06:33:53;100698.00;;;4.75;100.00
55301;BME280;58302;51.446;-2.000;2023-01-06T06:36:20;100703.81;;;4.72;100.00
55301;BME280;58302;51.446;-2.000;2023-01-06T06:38:47;100698.75;;;4.82;100.00
55301;BME280;58302;51.446;-2.000;2023-01-06T06:41:14;100704.47;;;4.92;100.00
55301;BME280;58302;51.446;-2.000;2023-01-06T06:43:40;100700.00;;;5.05;100.00
55301;BME280;58302;51.446;-2.000;2023-01-06T06:46:08;100700.31;;;5.15;100.00
55301;BME280;58302;51.446;-2.000;2023-01-06T06:48:34;100695.06;;;5.20;100.00
55301;BME280;58302;51.446;-2.000;2023-01-06T06:51:05;100693.88;;;5.16;100.00
55301;BME280;58302;51.446;-2.000;2023-01-06T06:53:32;100689.53;;;5.15;100.00
55301;BME280;58302;51.446;-2.000;2023-01-06T06:55:59;100682.28;;;5.15;100.00
55301;BME280;58302;51.446;-2.000;2023-01-06T06:58:25;100684.00;;;5.10;100.00
55301;BME280;58302;51.446;-2.000;2023-01-06T07:00:51;100685.63;;;5.11;100.00
55301;BME280;58302;51.446;-2.000;2023-01-06T07:03:18;100673.38;;;5.15;100.00
55301;BME280;58302;51.446;-2.000;2023-01-06T07:05:45;100690.00;;;5.12;100.00
55301;BME280;58302;51.446;-2.000;2023-01-06T07:08:13;100685.34;;;5.19;100.00
55301;BME280;58302;51.446;-2.000;2023-01-06T07:10:39;100684.97;;;5.15;100.00
55301;BME280;58302;51.446;-2.000;2023-01-06T07:13:05;100686.25;;;5.13;100.00
55301;BME280;58302;51.446;-2.000;2023-01-06T07:15:31;100683.09;;;5.16;100.00
55301;BME280;58302;51.446;-2.000;2023-01-06T07:18:05;100669.78;;;5.21;100.00
55301;BME280;58302;51.446;-2.000;2023-01-06T07:20:34;100675.63;;;5.18;100.00
55301;BME280;58302;51.446;-2.000;2023-01-06T07:23:00;100664.09;;;5.11;100.00
55301;BME280;58302;51.446;-2.000;2023-01-06T07:25:27;100671.97;;;5.12;100.00
55301;BME280;58302;51.446;-2.000;2023-01-06T07:27:59;100671.72;;;5.14;100.00
55301;BME280;58302;51.446;-2.000;2023-01-06T07:30:30;100668.66;;;5.10;100.00
55301;BME280;58302;51.446;-2.000;2023-01-06T07:32:56;100673.22;;;5.10;100.00
55301;BME280;58302;51.446;-2.000;2023-01-06T07:35:22;100674.72;;;5.06;100.00
55301;BME280;58302;51.446;-2.000;2023-01-06T07:37:48;100676.56;;;5.05;100.00
55301;BME280;58302;51.446;-2.000;2023-01-06T07:40:14;100686.53;;;5.05;100.00
55301;BME280;58302;51.446;-2.000;2023-01-06T07:42:42;100685.13;;;5.02;100.00
55301;BME280;58302;51.446;-2.000;2023-01-06T07:45:08;100696.94;;;5.01;100.00
55301;BME280;58302;51.446;-2.000;2023-01-06T07:47:34;100689.03;;;5.06;100.00
55301;BME280;58302;51.446;-2.000;2023-01-06T07:50:00;100694.03;;;5.02;100.00
55301;BME280;58302;51.446;-2.000;2023-01-06T07:52:26;100690.50;;;5.02;100.00
55301;BME280;58302;51.446;-2.000;2023-01-06T07:54:52;100689.69;;;5.01;100.00
55301;BME280;58302;51.446;-2.000;2023-01-06T07:57:18;100695.06;;;5.01;100.00
55301;BME280;58302;51.446;-2.000;2023-01-06T07:59:44;100696.13;;;5.00;100.00
55301;BME280;58302;51.446;-2.000;2023-01-06T08:02:10;100701.94;;;4.97;100.00
55301;BME280;58302;51.446;-2.000;2023-01-06T08:04:36;100700.13;;;4.91;100.00
55301;BME280;58302;51.446;-2.000;2023-01-06T08:07:02;100705.38;;;4.86;100.00
55301;BME280;58302;51.446;-2.000;2023-01-06T08:09:29;100703.31;;;4.82;100.00
55301;BME280;58302;51.446;-2.000;2023-01-06T08:11:55;100705.59;;;4.85;100.00
55301;BME280;58302;51.446;-2.000;2023-01-06T08:14:22;100697.88;;;4.88;100.00
55301;BME280;58302;51.446;-2.000;2023-01-06T08:16:49;100713.31;;;4.99;100.00
55301;BME280;58302;51.446;-2.000;2023-01-06T08:19:15;100712.94;;;4.96;100.00
55301;BME280;58302;51.446;-2.000;2023-01-06T08:21:41;100706.50;;;4.97;100.00
55301;BME280;58302;51.446;-2.000;2023-01-06T08:24:07;100710.56;;;5.06;100.00
55301;BME280;58302;51.446;-2.000;2023-01-06T08:26:33;100723.91;;;5.19;100.00
55301;BME280;58302;51.446;-2.000;2023-01-06T08:28:59;100724.59;;;5.33;100.00
55301;BME280;58302;51.446;-2.000;2023-01-06T08:31:25;100722.31;;;5.48;100.00
55301;BME280;58302;51.446;-2.000;2023-01-06T08:33:51;100720.97;;;5.58;100.00
55301;BME280;58302;51.446;-2.000;2023-01-06T08:36:19;100723.91;;;5.56;100.00
55301;BME280;58302;51.446;-2.000;2023-01-06T08:38:46;100719.09;;;5.58;100.00
55301;BME280;58302;51.446;-2.000;2023-01-06T08:41:12;100721.50;;;5.66;100.00
55301;BME280;58302;51.446;-2.000;2023-01-06T08:43:40;100722.63;;;5.77;100.00
55301;BME280;58302;51.446;-2.000;2023-01-06T08:46:07;100707.31;;;5.89;100.00
55301;BME280;58302;51.446;-2.000;2023-01-06T08:48:35;100702.91;;;5.95;100.00
55301;BME280;58302;51.446;-2.000;2023-01-06T08:51:12;100713.03;;;5.99;100.00
55301;BME280;58302;51.446;-2.000;2023-01-06T08:53:38;100708.13;;;6.08;100.00
55301;BME280;58302;51.446;-2.000;2023-01-06T08:56:11;100706.13;;;6.15;100.00
55301;BME280;58302;51.446;-2.000;2023-01-06T08:58:38;100703.72;;;6.25;100.00
55301;BME280;58302;51.446;-2.000;2023-01-06T09:01:04;100697.50;;;6.25;100.00
55301;BME280;58302;51.446;-2.000;2023-01-06T09:03:30;100697.88;;;6.28;100.00
55301;BME280;58302;51.446;-2.000;2023-01-06T09:05:57;100700.22;;;6.37;100.00
55301;BME280;58302;51.446;-2.000;2023-01-06T09:08:23;100705.28;;;6.45;100.00
55301;BME280;58302;51.446;-2.000;2023-01-06T09:10:50;100697.66;;;6.53;100.00
55301;BME280;58302;51.446;-2.000;2023-01-06T09:13:16;100706.50;;;6.72;100.00
55301;BME280;58302;51.446;-2.000;2023-01-06T09:15:42;100699.47;;;6.95;100.00
55301;BME280;58302;51.446;-2.000;2023-01-06T09:18:09;100692.88;;;7.02;100.00
55301;BME280;58302;51.446;-2.000;2023-01-06T09:20:36;100692.53;;;7.10;100.00
55301;BME280;58302;51.446;-2.000;2023-01-06T09:23:02;100692.75;;;7.32;100.00
55301;BME280;58302;51.446;-2.000;2023-01-06T09:25:28;100684.47;;;7.51;100.00
55301;BME280;58302;51.446;-2.000;2023-01-06T09:27:54;100689.03;;;7.62;100.00
55301;BME280;58302;51.446;-2.000;2023-01-06T09:30:20;100692.59;;;7.51;100.00
55301;BME280;58302;51.446;-2.000;2023-01-06T09:32:46;100689.63;;;7.52;100.00
55301;BME280;58302;51.446;-2.000;2023-01-06T09:35:12;100685.09;;;7.29;100.00
55301;BME280;58302;51.446;-2.000;2023-01-06T09:37:38;100693.34;;;7.11;100.00
55301;BME280;58302;51.446;-2.000;2023-01-06T09:40:04;100689.59;;;7.00;100.00
55301;BME280;58302;51.446;-2.000;2023-01-06T09:43:26;100680.44;;;6.90;100.00
55301;BME280;58302;51.446;-2.000;2023-01-06T09:45:38;100690.56;;;6.94;100.00
55301;BME280;58302;51.446;-2.000;2023-01-06T09:48:14;100704.50;;;6.91;100.00
55301;BME280;58302;51.446;-2.000;2023-01-06T09:50:44;100698.16;;;6.85;100.00
55301;BME280;58302;51.446;-2.000;2023-01-06T09:53:16;100706.16;;;6.80;100.00
55301;BME280;58302;51.446;-2.000;2023-01-06T09:55:46;100711.66;;;6.74;100.00
55301;BME280;58302;51.446;-2.000;2023-01-06T09:58:21;100718.38;;;6.71;100.00
55301;BME280;58302;51.446;-2.000;2023-01-06T10:00:53;100718.81;;;6.68;100.00
55301;BME280;58302;51.446;-2.000;2023-01-06T10:03:22;100709.44;;;6.71;100.00
55301;BME280;58302;51.446;-2.000;2023-01-06T10:16:15;100708.03;;;6.92;100.00
55301;BME280;58302;51.446;-2.000;2023-01-06T10:21:45;100717.00;;;7.04;100.00
55301;BME280;58302;51.446;-2.000;2023-01-06T10:27:36;100711.44;;;7.22;100.00
55301;BME280;58302;51.446;-2.000;2023-01-06T10:30:36;100709.44;;;7.29;100.00
55301;BME280;58302;51.446;-2.000;2023-01-06T10:32:59;100702.13;;;7.42;100.00
55301;BME280;58302;51.446;-2.000;2023-01-06T10:35:26;100711.19;;;7.47;100.00
55301;BME280;58302;51.446;-2.000;2023-01-06T10:37:55;100694.69;;;7.60;100.00
55301;BME280;58302;51.446;-2.000;2023-01-06T10:40:27;100696.06;;;7.75;100.00
55301;BME280;58302;51.446;-2.000;2023-01-06T10:43:03;100699.53;;;7.87;100.00
55301;BME280;58302;51.446;-2.000;2023-01-06T10:45:35;100683.81;;;8.01;100.00
55301;BME280;58302;51.446;-2.000;2023-01-06T10:48:06;100685.16;;;8.15;100.00
55301;BME280;58302;51.446;-2.000;2023-01-06T10:50:36;100674.66;;;8.18;100.00
55301;BME280;58302;51.446;-2.000;2023-01-06T10:53:02;100674.94;;;8.34;100.00
55301;BME280;58302;51.446;-2.000;2023-01-06T10:55:48;100666.53;;;8.47;100.00
55301;BME280;58302;51.446;-2.000;2023-01-06T10:58:23;100664.22;;;8.56;100.00
55301;BME280;58302;51.446;-2.000;2023-01-06T11:03:20;100654.06;;;8.63;100.00
55301;BME280;58302;51.446;-2.000;2023-01-06T11:05:46;100661.50;;;8.73;100.00
55301;BME280;58302;51.446;-2.000;2023-01-06T11:08:13;100650.19;;;8.76;100.00
55301;BME280;58302;51.446;-2.000;2023-01-06T11:10:50;100649.34;;;8.92;100.00
55301;BME280;58302;51.446;-2.000;2023-01-06T11:13:25;100634.25;;;9.18;100.00
55301;BME280;58302;51.446;-2.000;2023-01-06T11:15:51;100635.28;;;9.61;100.00
55301;BME280;58302;51.446;-2.000;2023-01-06T11:21:12;100604.06;;;10.12;100.00
55301;BME280;58302;51.446;-2.000;2023-01-06T11:23:41;100602.38;;;10.33;100.00
55301;BME280;58302;51.446;-2.000;2023-01-06T11:28:37;100593.22;;;9.85;100.00
55301;BME280;58302;51.446;-2.000;2023-01-06T11:33:37;100573.91;;;10.46;100.00
55301;BME280;58302;51.446;-2.000;2023-01-06T11:36:12;100579.50;;;10.66;100.00
55301;BME280;58302;51.446;-2.000;2023-01-06T11:38:41;100569.59;;;10.50;100.00
55301;BME280;58302;51.446;-2.000;2023-01-06T11:41:11;100569.75;;;10.01;100.00
55301;BME280;58302;51.446;-2.000;2023-01-06T11:43:43;100564.44;;;9.57;100.00
55301;BME280;58302;51.446;-2.000;2023-01-06T11:46:12;100569.69;;;9.42;100.00
55301;BME280;58302;51.446;-2.000;2023-01-06T11:48:48;100564.78;;;9.39;100.00
55301;BME280;58302;51.446;-2.000;2023-01-06T11:51:30;100554.44;;;9.36;100.00
55301;BME280;58302;51.446;-2.000;2023-01-06T11:53:57;100549.63;;;9.43;100.00
55301;BME280;58302;51.446;-2.000;2023-01-06T11:56:23;100542.56;;;9.42;100.00
55301;BME280;58302;51.446;-2.000;2023-01-06T11:58:57;100541.22;;;9.44;100.00
55301;BME280;58302;51.446;-2.000;2023-01-06T12:01:46;100542.47;;;9.59;100.00
55301;BME280;58302;51.446;-2.000;2023-01-06T12:04:26;100529.81;;;9.69;100.00
55301;BME280;58302;51.446;-2.000;2023-01-06T12:06:59;100520.66;;;9.75;100.00
55301;BME280;58302;51.446;-2.000;2023-01-06T12:09:32;100527.72;;;9.76;100.00
55301;BME280;58302;51.446;-2.000;2023-01-06T12:12:09;100517.84;;;9.65;100.00
55301;BME280;58302;51.446;-2.000;2023-01-06T12:14:37;100519.41;;;9.56;100.00
55301;BME280;58302;51.446;-2.000;2023-01-06T12:20:35;100507.88;;;9.44;100.00
55301;BME280;58302;51.446;-2.000;2023-01-06T12:23:10;100505.63;;;9.36;100.00
55301;BME280;58302;51.446;-2.000;2023-01-06T12:25:44;100501.69;;;9.48;100.00
55301;BME280;58302;51.446;-2.000;2023-01-06T12:28:24;100504.00;;;9.62;100.00
55301;BME280;58302;51.446;-2.000;2023-01-06T12:31:01;100479.38;;;9.73;100.00
55301;BME280;58302;51.446;-2.000;2023-01-06T12:33:38;100484.88;;;9.79;100.00
55301;BME280;58302;51.446;-2.000;2023-01-06T12:36:17;100472.00;;;10.01;100.00
55301;BME280;58302;51.446;-2.000;2023-01-06T12:38:56;100481.59;;;10.14;100.00
55301;BME280;58302;51.446;-2.000;2023-01-06T12:44:02;100475.00;;;10.47;100.00
55301;BME280;58302;51.446;-2.000;2023-01-06T12:46:34;100475.81;;;10.42;100.00
55301;BME280;58302;51.446;-2.000;2023-01-06T12:49:05;100459.00;;;10.50;100.00
55301;BME280;58302;51.446;-2.000;2023-01-06T12:51:40;100460.94;;;10.55;100.00
55301;BME280;58302;51.446;-2.000;2023-01-06T13:00:03;100451.44;;;10.58;100.00
55301;BME280;58302;51.446;-2.000;2023-01-06T13:02:40;100448.38;;;10.44;100.00
55301;BME280;58302;51.446;-2.000;2023-01-06T13:05:22;100456.19;;;10.30;100.00
55301;BME280;58302;51.446;-2.000;2023-01-06T13:08:23;100450.38;;;10.21;100.00
55301;BME280;58302;51.446;-2.000;2023-01-06T13:11:26;100436.09;;;9.94;100.00
55301;BME280;58302;51.446;-2.000;2023-01-06T13:14:11;100427.06;;;9.78;100.00
55301;BME280;58302;51.446;-2.000;2023-01-06T13:16:45;100424.84;;;9.75;100.00
55301;BME280;58302;51.446;-2.000;2023-01-06T13:21:46;100427.34;;;9.82;100.00
55301;BME280;58302;51.446;-2.000;2023-01-06T13:29:56;100426.75;;;9.74;100.00
55301;BME280;58302;51.446;-2.000;2023-01-06T13:41:03;100422.19;;;9.48;100.00
55301;BME280;58302;51.446;-2.000;2023-01-06T13:43:32;100409.78;;;9.57;100.00
55301;BME280;58302;51.446;-2.000;2023-01-06T13:46:03;100410.41;;;9.69;100.00
55301;BME280;58302;51.446;-2.000;2023-01-06T13:48:34;100420.34;;;9.91;100.00
55301;BME280;58302;51.446;-2.000;2023-01-06T13:51:03;100412.34;;;10.16;100.00
55301;BME280;58302;51.446;-2.000;2023-01-06T13:53:36;100404.69;;;10.55;100.00
55301;BME280;58302;51.446;-2.000;2023-01-06T13:58:48;100398.00;;;10.89;100.00
55301;BME280;58302;51.446;-2.000;2023-01-06T14:03:49;100387.56;;;10.50;100.00
55301;BME280;58302;51.446;-2.000;2023-01-06T14:08:55;100379.34;;;10.35;100.00
55301;BME280;58302;51.446;-2.000;2023-01-06T14:13:56;100390.63;;;10.11;100.00
55301;BME280;58302;51.446;-2.000;2023-01-06T14:16:43;100379.19;;;10.09;100.00
55301;BME280;58302;51.446;-2.000;2023-01-06T14:19:20;100364.91;;;10.24;100.00
55301;BME280;58302;51.446;-2.000;2023-01-06T14:21:49;100352.66;;;10.26;100.00
55301;BME280;58302;51.446;-2.000;2023-01-06T14:26:49;100344.78;;;10.25;100.00
55301;BME280;58302;51.446;-2.000;2023-01-06T14:34:49;100303.59;;;9.86;100.00
55301;BME280;58302;51.446;-2.000;2023-01-06T14:37:18;100314.94;;;9.72;100.00
55301;BME280;58302;51.446;-2.000;2023-01-06T14:39:50;100306.69;;;9.57;100.00
55301;BME280;58302;51.446;-2.000;2023-01-06T14:42:20;100298.75;;;9.45;100.00
55301;BME280;58302;51.446;-2.000;2023-01-06T14:44:49;100288.13;;;9.39;100.00
55301;BME280;58302;51.446;-2.000;2023-01-06T14:47:37;100228.16;;;9.30;100.00
55301;BME280;58302;51.446;-2.000;2023-01-06T14:50:28;100240.28;;;9.22;100.00
55301;BME280;58302;51.446;-2.000;2023-01-06T14:53:00;100242.41;;;9.15;100.00
55301;BME280;58302;51.446;-2.000;2023-01-06T14:55:30;100244.53;;;9.08;100.00